createdAt,value
2018-07-09T00:00:59.350Z,1.47
2018-07-09T00:03:28.484Z,1.57
2018-07-09T00:05:56.978Z,1.40
2018-07-09T00:08:25.823Z,1.73
2018-07-09T00:10:57.524Z,1.57
2018-07-09T00:13:26.529Z,1.87
2018-07-09T00:15:55.646Z,1.80
2018-07-09T00:18:24.178Z,2.23
2018-07-09T00:20:52.675Z,1.83
2018-07-09T00:23:21.157Z,1.67
2018-07-09T00:25:50.310Z,2.20
2018-07-09T00:28:19.526Z,2.10
2018-07-09T00:30:48.053Z,2.20
2018-07-09T00:33:17.250Z,1.90
2018-07-09T00:35:46.146Z,2.23
2018-07-09T00:38:14.703Z,1.90
2018-07-09T00:40:43.170Z,1.90
2018-07-09T00:43:11.606Z,2.57
2018-07-09T00:45:40.444Z,2.00
2018-07-09T00:48:08.958Z,1.70
2018-07-09T00:50:37.420Z,2.20
2018-07-09T00:53:05.901Z,2.80
2018-07-09T00:55:34.561Z,1.97
2018-07-09T00:58:03.068Z,2.47
2018-07-09T01:00:31.865Z,2.40
2018-07-09T01:03:00.296Z,2.23
2018-07-09T01:05:28.757Z,2.57
2018-07-09T01:07:57.184Z,2.37
2018-07-09T01:10:25.663Z,1.83
2018-07-09T01:12:54.141Z,2.50
2018-07-09T01:15:22.605Z,2.10
2018-07-09T01:17:51.067Z,2.97
2018-07-09T01:20:19.640Z,1.80
2018-07-09T01:22:48.685Z,2.63
2018-07-09T01:25:17.151Z,2.60
2018-07-09T01:27:45.575Z,2.57
2018-07-09T01:30:15.210Z,2.53
2018-07-09T01:32:43.978Z,2.40
2018-07-09T01:35:13.229Z,3.00
2018-07-09T01:37:42.144Z,2.30
2018-07-09T01:40:10.804Z,2.80
2018-07-09T01:42:39.607Z,2.03
2018-07-09T01:45:08.047Z,2.90
2018-07-09T01:47:36.489Z,2.70
2018-07-09T01:50:05.075Z,2.40
2018-07-09T01:52:33.507Z,2.10
2018-07-09T01:55:02.036Z,2.17
2018-07-09T01:57:30.553Z,2.50
2018-07-09T01:59:58.986Z,2.37
2018-07-09T02:02:27.780Z,2.43
2018-07-09T02:04:56.219Z,3.30
2018-07-09T02:07:24.665Z,2.57
2018-07-09T02:09:53.105Z,2.10
2018-07-09T02:12:21.537Z,2.13
2018-07-09T02:14:49.973Z,3.03
2018-07-09T02:17:18.441Z,2.50
2018-07-09T02:19:46.977Z,3.00
2018-07-09T02:22:15.427Z,2.50
2018-07-09T02:24:43.873Z,2.37
2018-07-09T02:27:12.360Z,2.57
2018-07-09T02:29:40.906Z,2.70
2018-07-09T02:32:09.346Z,2.40
2018-07-09T02:34:37.798Z,2.60
2018-07-09T02:37:06.261Z,3.30
2018-07-09T02:39:34.704Z,3.10
2018-07-09T02:42:03.499Z,2.70
2018-07-09T02:44:31.969Z,2.07
2018-07-09T02:47:00.415Z,3.40
2018-07-09T02:49:28.840Z,2.53
2018-07-09T02:51:57.292Z,3.10
2018-07-09T02:54:25.762Z,2.53
2018-07-09T02:56:54.533Z,2.80
2018-07-09T02:59:22.947Z,2.90
2018-07-09T03:01:51.387Z,3.30
2018-07-09T03:04:20.221Z,3.13
2018-07-09T03:06:48.681Z,3.13
2018-07-09T03:09:17.097Z,3.00
2018-07-09T03:11:45.558Z,2.63
2018-07-09T03:14:14.008Z,2.97
2018-07-09T03:16:42.469Z,2.93
2018-07-09T03:19:11.029Z,2.70
2018-07-09T03:21:39.564Z,2.50
2018-07-09T03:24:08.013Z,2.60
2018-07-09T03:26:36.882Z,2.90
2018-07-09T03:29:05.347Z,2.70
2018-07-09T03:31:33.766Z,2.43
2018-07-09T03:34:02.306Z,3.67
2018-07-09T03:36:30.756Z,2.50
2018-07-09T03:38:59.580Z,2.50
2018-07-09T03:41:28.020Z,2.77
2018-07-09T03:43:56.704Z,2.07
2018-07-09T03:46:25.153Z,3.50
2018-07-09T03:48:53.605Z,3.20
2018-07-09T03:51:22.043Z,3.47
2018-07-09T03:53:50.865Z,2.30
2018-07-09T03:56:19.317Z,2.30
2018-07-09T03:58:47.946Z,3.33
2018-07-09T04:01:16.361Z,2.33
2018-07-09T04:03:44.816Z,2.50
2018-07-09T04:06:13.246Z,2.87
2018-07-09T04:08:41.655Z,3.20
2018-07-09T04:11:10.100Z,3.67
2018-07-09T04:13:38.543Z,2.40
2018-07-09T04:16:07.178Z,3.10
2018-07-09T04:18:35.943Z,3.13
2018-07-09T04:21:04.743Z,2.10
2018-07-09T04:23:33.173Z,2.80
2018-07-09T04:26:01.608Z,3.00
2018-07-09T04:28:30.033Z,3.63
2018-07-09T04:30:58.461Z,2.67
2018-07-09T04:33:26.870Z,3.13
2018-07-09T04:35:55.308Z,4.07
2018-07-09T04:38:23.759Z,3.63
2018-07-09T04:40:52.231Z,2.90
2018-07-09T04:43:20.729Z,3.07
2018-07-09T04:45:49.304Z,3.60
2018-07-09T04:48:17.745Z,3.67
2018-07-09T06:12:44.647Z,5.57
2018-07-09T06:15:13.490Z,5.30
2018-07-09T06:17:41.961Z,5.77
2018-07-09T06:20:10.447Z,5.50
2018-07-09T06:22:38.961Z,5.27
2018-07-09T06:25:07.824Z,5.90
2018-07-09T06:27:36.362Z,4.70
2018-07-09T06:30:05.139Z,4.87
2018-07-09T06:32:33.623Z,5.33
2018-07-09T06:35:02.084Z,5.13
2018-07-09T06:37:30.533Z,4.60
2018-07-09T06:39:58.983Z,5.17
2018-07-09T06:42:27.575Z,4.23
2018-07-09T06:45:00.847Z,4.90
2018-07-09T06:47:29.358Z,5.30
2018-07-09T06:49:57.865Z,5.00
2018-07-09T06:52:26.547Z,4.73
2018-07-09T06:54:55.057Z,4.40
2018-07-09T06:57:23.622Z,3.70
2018-07-09T06:59:52.060Z,4.50
2018-07-09T07:02:20.540Z,4.07
2018-07-09T07:04:49.331Z,4.60
2018-07-09T07:07:17.781Z,3.87
2018-07-09T07:09:46.379Z,5.60
2018-07-09T07:12:15.198Z,4.70
2018-07-09T07:14:50.179Z,3.73
2018-07-09T07:17:18.769Z,4.60
2018-07-09T07:19:47.201Z,3.87
2018-07-09T07:22:15.694Z,4.00
2018-07-09T07:24:44.135Z,3.90
2018-07-09T07:27:12.668Z,3.73
2018-07-09T07:29:41.178Z,4.17
2018-07-09T07:32:09.649Z,4.03
2018-07-09T07:34:38.213Z,4.47
2018-07-09T07:37:07.201Z,3.30
2018-07-09T07:39:35.717Z,3.73
2018-07-09T07:42:04.236Z,3.63
2018-07-09T07:44:32.670Z,3.73
2018-07-09T07:47:01.495Z,4.30
2018-07-09T07:49:29.964Z,4.00
2018-07-09T07:51:58.760Z,3.70
2018-07-09T07:54:27.209Z,4.10
2018-07-09T07:56:55.744Z,3.77
2018-07-09T07:59:24.224Z,3.90
2018-07-09T08:01:52.718Z,4.30
2018-07-09T08:04:21.227Z,4.20
2018-07-09T08:06:50.187Z,3.50
2018-07-09T08:09:19.095Z,3.40
2018-07-09T08:11:49.258Z,4.00
2018-07-09T08:14:16.585Z,4.67
2018-07-09T08:16:45.382Z,3.90
2018-07-09T08:19:13.839Z,4.00
2018-07-09T08:21:42.313Z,4.10
2018-07-09T08:24:11.020Z,3.73
2018-07-09T08:26:39.620Z,3.10
2018-07-09T08:29:08.283Z,3.23
2018-07-09T08:31:36.895Z,4.03
2018-07-09T08:34:05.715Z,3.20
2018-07-09T08:36:34.135Z,3.80
2018-07-09T08:39:02.734Z,4.80
2018-07-09T08:41:31.174Z,3.53
2018-07-09T08:43:59.662Z,4.13
2018-07-09T08:46:28.096Z,3.80
2018-07-09T08:48:56.906Z,3.00
2018-07-09T08:51:25.726Z,3.47
2018-07-09T08:53:54.225Z,3.30
2018-07-09T08:56:23.102Z,3.50
2018-07-09T08:58:51.560Z,3.50
2018-07-09T09:01:20.044Z,3.93
2018-07-09T09:03:48.550Z,4.13
2018-07-09T09:06:17.123Z,3.10
2018-07-09T09:08:45.574Z,3.40
2018-07-09T09:11:14.054Z,3.03
2018-07-09T09:13:42.531Z,3.30
2018-07-09T09:16:11.051Z,3.60
2018-07-09T09:18:39.830Z,3.30
2018-07-09T09:21:08.531Z,2.73
2018-07-09T09:23:37.185Z,2.80
2018-07-09T09:26:06.369Z,2.83
2018-07-09T09:28:34.815Z,2.63
2018-07-09T09:31:03.658Z,3.33
2018-07-09T09:33:32.148Z,3.20
2018-07-09T09:36:00.601Z,2.90
2018-07-09T09:38:29.156Z,3.77
2018-07-09T09:40:57.675Z,3.67
2018-07-09T09:43:26.150Z,2.20
2018-07-09T09:45:54.590Z,1.87
2018-07-09T09:48:23.078Z,3.30
2018-07-09T09:50:51.519Z,3.00
2018-07-09T09:53:20.389Z,3.20
2018-07-09T09:55:48.838Z,3.03
2018-07-09T09:58:17.334Z,3.23
2018-07-09T10:00:49.669Z,3.30
2018-07-09T10:03:18.165Z,3.27
2018-07-09T10:05:47.579Z,2.17
2018-07-09T10:08:16.036Z,2.30
2018-07-09T10:10:45.023Z,2.33
2018-07-09T10:13:13.840Z,2.33
2018-07-09T10:15:42.255Z,2.87
2018-07-09T10:18:10.720Z,3.30
2018-07-09T10:20:39.156Z,3.37
2018-07-09T10:23:07.816Z,2.90
2018-07-09T10:25:36.300Z,2.80
2018-07-09T10:28:04.804Z,2.40
2018-07-09T10:30:33.347Z,2.20
2018-07-09T10:33:01.946Z,2.13
2018-07-09T10:35:30.409Z,1.73
2018-07-09T10:37:58.880Z,2.70
2018-07-09T10:40:27.391Z,3.00
2018-07-09T10:42:55.998Z,2.97
2018-07-09T10:45:24.468Z,2.67
2018-07-09T10:47:53.272Z,1.67
2018-07-09T10:50:21.781Z,2.53
2018-07-09T10:52:50.294Z,2.60
2018-07-09T10:55:18.818Z,2.43
2018-07-09T10:57:47.541Z,2.20
2018-07-09T11:00:16.020Z,1.57
2018-07-09T11:02:44.524Z,1.90
2018-07-09T11:05:12.975Z,2.10
2018-07-09T11:07:41.454Z,2.10
2018-07-09T11:10:09.903Z,1.90
2018-07-09T11:12:38.412Z,1.90
2018-07-09T11:15:06.913Z,2.10
2018-07-09T11:17:35.405Z,1.70
2018-07-09T11:20:04.142Z,2.37
2018-07-09T11:22:32.605Z,2.00
2018-07-09T11:25:01.020Z,2.37
2018-07-09T11:27:29.491Z,2.20
2018-07-09T11:29:58.159Z,1.90
2018-07-09T11:32:26.669Z,1.90
2018-07-09T11:34:55.125Z,2.40
2018-07-09T11:37:23.589Z,1.73
2018-07-09T11:39:52.082Z,1.80
2018-07-09T11:42:20.528Z,1.77
2018-07-09T11:44:49.041Z,2.10
2018-07-09T11:47:17.981Z,1.90
2018-07-09T11:49:46.791Z,1.93
2018-07-09T11:52:15.256Z,2.20
2018-07-09T11:54:43.694Z,2.00
2018-07-09T11:57:12.154Z,2.00
2018-07-09T11:59:40.943Z,1.67
2018-07-09T12:02:09.392Z,1.80
2018-07-09T12:04:37.881Z,1.63
2018-07-09T12:07:06.550Z,1.50
2018-07-09T12:09:34.996Z,1.37
2018-07-09T12:12:03.499Z,1.60
2018-07-09T12:14:32.030Z,2.30
2018-07-09T12:17:00.562Z,1.73
2018-07-09T12:19:29.214Z,1.73
2018-07-09T12:21:57.744Z,1.87
2018-07-09T12:24:26.200Z,1.80
2018-07-09T12:26:54.742Z,1.33
2018-07-09T12:29:23.247Z,1.60
2018-07-09T12:31:51.724Z,1.50
2018-07-09T12:34:20.163Z,1.70
2018-07-09T12:36:48.577Z,1.63
2018-07-09T12:39:17.043Z,1.93
2018-07-09T12:41:45.511Z,1.50
2018-07-09T12:44:13.995Z,1.67
2018-07-09T12:46:42.452Z,1.47
2018-07-09T12:49:11.248Z,1.70
2018-07-09T12:51:39.725Z,1.20
2018-07-09T12:54:08.214Z,1.60
2018-07-09T12:56:36.691Z,1.70
2018-07-09T12:59:05.243Z,1.77
2018-07-09T13:01:33.811Z,1.57
2018-07-09T13:04:02.377Z,1.67
2018-07-09T13:06:30.844Z,1.40
2018-07-09T13:08:59.652Z,1.60
2018-07-09T13:11:28.316Z,1.63
2018-07-09T13:13:56.768Z,1.73
2018-07-09T13:16:25.547Z,1.50
2018-07-09T13:18:54.356Z,2.40
2018-07-09T13:21:22.995Z,2.50
2018-07-09T13:23:51.864Z,3.10
2018-07-09T13:26:20.405Z,2.10
2018-07-09T13:28:48.928Z,1.70
2018-07-09T13:31:17.861Z,1.90
2018-07-09T13:33:46.341Z,2.20
2018-07-09T13:36:14.886Z,2.10
2018-07-09T13:38:43.438Z,1.90
2018-07-09T13:41:11.951Z,1.90
2018-07-09T13:43:40.409Z,1.90
2018-07-09T13:46:08.905Z,2.20
2018-07-09T13:48:37.419Z,2.33
2018-07-09T13:51:05.906Z,2.17
2018-07-09T13:53:34.464Z,2.30
2018-07-09T13:56:03.325Z,1.73
2018-07-09T13:58:31.858Z,2.33
2018-07-09T14:01:00.674Z,1.70
2018-07-09T14:03:29.134Z,1.67
2018-07-09T14:05:57.582Z,1.83
2018-07-09T14:08:26.183Z,1.93
2018-07-09T14:10:55.443Z,1.80
2018-07-09T14:13:23.914Z,2.20
2018-07-09T14:15:52.406Z,2.70
2018-07-09T14:18:20.871Z,2.47
2018-07-09T14:20:49.289Z,2.00
2018-07-09T14:23:18.762Z,2.40
2018-07-09T14:25:47.208Z,2.47
2018-07-09T14:28:15.647Z,1.90
2018-07-09T14:30:44.495Z,2.13
2018-07-09T14:33:12.959Z,2.07
2018-07-09T14:35:41.474Z,1.83
2018-07-09T14:38:09.955Z,2.60
2018-07-09T14:40:38.688Z,1.57
2018-07-09T14:43:07.483Z,2.10
2018-07-09T14:45:35.943Z,1.97
2018-07-09T14:48:04.458Z,1.90
2018-07-09T14:50:32.887Z,2.00
2018-07-09T14:53:01.367Z,1.83
2018-07-09T14:55:29.822Z,2.10
2018-07-09T14:57:58.326Z,2.33
2018-07-09T15:00:26.865Z,1.93
2018-07-09T15:02:55.424Z,1.83
2018-07-09T15:05:23.869Z,2.17
2018-07-09T15:07:53.040Z,2.23
2018-07-09T15:10:21.564Z,2.37
2018-07-09T15:12:50.166Z,1.70
2018-07-09T15:15:18.869Z,2.17
2018-07-09T15:17:47.363Z,1.97
2018-07-09T15:20:15.865Z,2.37
2018-07-09T15:22:44.308Z,2.00
2018-07-09T15:25:12.803Z,2.70
2018-07-09T15:27:41.463Z,2.63
2018-07-09T15:30:09.944Z,2.17
2018-07-09T15:32:38.406Z,2.60
2018-07-09T15:35:07.549Z,2.57
2018-07-09T15:37:35.981Z,2.60
2018-07-09T15:40:04.552Z,2.43
2018-07-09T15:42:33.549Z,2.50
2018-07-09T15:45:01.983Z,3.30
2018-07-09T15:47:30.455Z,2.73
2018-07-09T15:49:58.875Z,2.73
2018-07-09T15:52:27.336Z,2.73
2018-07-09T15:54:56.119Z,3.10
2018-07-09T15:57:24.599Z,2.00
2018-07-09T15:59:53.064Z,2.57
2018-07-09T16:02:21.484Z,2.63
2018-07-09T16:04:49.942Z,2.73
2018-07-09T16:07:18.416Z,2.57
2018-07-09T16:09:46.851Z,3.60
2018-07-09T16:12:15.346Z,3.20
2018-07-09T16:14:43.835Z,2.80
2018-07-09T16:17:12.126Z,3.43
2018-07-09T16:19:40.645Z,2.80
2018-07-09T16:22:09.154Z,2.93
2018-07-09T16:24:37.655Z,2.80
2018-07-09T16:27:06.099Z,3.23
2018-07-09T16:29:34.548Z,2.43
2018-07-09T16:32:02.982Z,2.40
2018-07-09T16:34:31.410Z,3.37
2018-07-09T16:37:00.188Z,2.90
2018-07-09T16:39:28.632Z,3.23
2018-07-09T16:41:57.082Z,2.80
2018-07-09T16:44:25.930Z,3.50
2018-07-09T16:46:54.364Z,3.60
2018-07-09T16:49:23.126Z,3.23
2018-07-09T16:51:51.593Z,2.87
2018-07-09T16:54:20.071Z,3.30
2018-07-09T16:56:48.880Z,2.67
2018-07-09T16:59:17.325Z,3.47
2018-07-09T17:01:45.852Z,2.80
2018-07-09T17:04:14.292Z,2.93
2018-07-09T17:06:42.855Z,3.13
2018-07-09T17:09:11.334Z,3.77
2018-07-09T17:11:39.879Z,3.40
2018-07-09T17:14:08.343Z,3.30
2018-07-09T17:16:36.813Z,3.50
2018-07-09T17:19:05.301Z,3.53
2018-07-09T17:21:34.409Z,3.00
2018-07-09T17:24:02.892Z,2.67
2018-07-09T17:26:31.706Z,2.60
2018-07-09T17:29:00.642Z,3.07
2018-07-09T17:31:29.106Z,3.00
2018-07-09T17:33:57.548Z,2.97
2018-07-09T17:36:26.478Z,2.57
2018-07-09T17:38:55.103Z,2.77
2018-07-09T17:41:23.765Z,2.23
2018-07-09T17:43:52.234Z,2.07
2018-07-09T17:46:21.214Z,2.53
2018-07-09T17:48:49.649Z,2.40
2018-07-09T17:51:18.104Z,2.10
2018-07-09T17:53:46.594Z,2.60
2018-07-09T17:56:15.389Z,2.87
2018-07-09T17:58:44.372Z,2.10
2018-07-09T18:01:14.393Z,2.20
2018-07-09T18:03:42.824Z,2.70
2018-07-09T18:06:11.652Z,2.67
2018-07-09T18:08:40.097Z,2.50
2018-07-09T18:11:08.547Z,2.07
2018-07-09T18:13:37.004Z,2.47
2018-07-09T18:16:06.116Z,2.63
2018-07-09T18:18:34.558Z,2.60
2018-07-09T18:21:03.080Z,1.90
2018-07-09T18:23:31.551Z,3.23
2018-07-09T18:25:59.995Z,3.43
2018-07-09T18:28:28.619Z,2.67
2018-07-09T18:30:57.259Z,2.70
2018-07-09T18:33:25.691Z,2.80
2018-07-09T18:35:54.144Z,2.50
2018-07-09T18:38:22.588Z,2.07
2018-07-09T18:40:51.045Z,1.93
2018-07-09T18:43:19.532Z,2.20
2018-07-09T18:45:48.327Z,1.93
2018-07-09T18:48:17.032Z,2.03
2018-07-09T18:50:45.651Z,1.80
2018-07-09T18:53:14.066Z,1.93
2018-07-09T18:55:42.516Z,1.47
2018-07-09T18:58:11.746Z,2.20
2018-07-09T19:00:40.330Z,1.73
2018-07-09T19:03:08.860Z,1.70
2018-07-09T19:06:47.127Z,1.60
2018-07-09T19:09:16.436Z,2.10
2018-07-09T19:11:44.986Z,1.60
2018-07-09T19:14:13.570Z,1.90
2018-07-09T19:16:53.972Z,1.90
2018-07-09T19:19:34.535Z,1.77
2018-07-09T19:22:03.635Z,2.30
2018-07-09T19:24:31.376Z,2.57
2018-07-09T19:26:59.602Z,2.10
2018-07-09T19:29:26.939Z,2.30
2018-07-09T19:31:54.421Z,2.50
2018-07-09T19:34:22.084Z,2.70
2018-07-09T19:36:49.536Z,2.90
2018-07-09T19:39:17.054Z,2.03
2018-07-09T19:41:44.394Z,2.40
2018-07-09T19:44:11.907Z,2.43
2018-07-09T19:46:39.276Z,2.20
2018-07-09T19:49:06.666Z,2.50
2018-07-09T19:51:33.988Z,2.40
2018-07-09T19:54:01.301Z,3.27
2018-07-09T19:56:28.635Z,3.30
2018-07-09T19:58:55.916Z,3.77
2018-07-09T20:01:23.408Z,3.30
2018-07-09T20:03:50.766Z,3.57
2018-07-09T20:06:18.131Z,3.60
2018-07-09T20:08:50.713Z,3.57
2018-07-09T20:11:23.378Z,3.10
2018-07-09T20:14:07.722Z,4.17
2018-07-09T20:16:40.499Z,3.23
2018-07-09T20:19:08.278Z,3.70
2018-07-09T20:21:35.831Z,3.97
2018-07-09T20:24:03.186Z,3.73
2018-07-09T20:26:30.691Z,3.67
2018-07-09T20:28:58.000Z,4.13
2018-07-09T20:31:26.996Z,4.23
2018-07-09T20:33:54.575Z,4.17
2018-07-09T20:36:22.039Z,4.00
2018-07-09T20:38:49.360Z,4.07
2018-07-09T20:41:16.650Z,4.43
2018-07-09T20:43:44.064Z,4.57
2018-07-09T20:46:11.376Z,4.10
2018-07-09T20:48:38.717Z,3.97
2018-07-09T20:51:06.112Z,5.40
2018-07-09T20:53:33.437Z,4.47
2018-07-09T20:56:00.782Z,3.57
2018-07-09T20:58:28.194Z,4.53
2018-07-09T21:00:55.500Z,4.37
2018-07-09T21:03:22.840Z,4.97
2018-07-09T21:05:50.134Z,4.33
2018-07-09T21:08:18.607Z,4.57
2018-07-09T21:10:46.442Z,4.93
2018-07-09T21:13:13.796Z,5.50
2018-07-09T21:15:41.258Z,3.90
2018-07-09T21:18:08.656Z,5.07
2018-07-09T21:20:36.009Z,5.37
2018-07-09T21:23:03.326Z,4.93
2018-07-09T21:25:30.907Z,4.57
2018-07-09T21:27:58.280Z,4.70
2018-07-09T21:30:25.602Z,3.90
2018-07-09T21:32:52.924Z,4.00
2018-07-09T21:35:20.253Z,3.90
2018-07-09T21:37:47.723Z,4.17
2018-07-09T21:40:15.110Z,3.70
2018-07-09T21:42:42.430Z,3.50
2018-07-09T21:45:09.762Z,3.63
2018-07-09T21:47:37.071Z,4.53
2018-07-09T21:50:04.364Z,3.90
2018-07-09T21:52:31.682Z,3.80
2018-07-09T21:54:59.007Z,4.23
2018-07-09T21:57:26.321Z,4.33
2018-07-09T21:59:53.626Z,3.80
2018-07-09T22:02:20.949Z,4.93
2018-07-09T22:04:48.248Z,4.20
2018-07-09T22:07:15.574Z,4.67
2018-07-09T22:09:42.879Z,3.90
2018-07-09T22:12:10.220Z,3.80
2018-07-09T22:14:37.541Z,4.67
2018-07-09T22:17:04.873Z,4.30
2018-07-09T22:19:32.203Z,4.27
2018-07-09T22:21:59.724Z,5.03
2018-07-09T22:24:27.094Z,4.33
2018-07-09T22:26:54.411Z,3.97
2018-07-09T22:29:21.728Z,4.50
2018-07-09T22:31:50.267Z,4.57
2018-07-09T22:34:18.727Z,4.13
2018-07-09T22:36:47.182Z,5.10
2018-07-09T22:39:15.667Z,4.67
2018-07-09T22:41:44.145Z,4.47
2018-07-09T22:44:22.531Z,4.40
2018-07-09T22:46:50.975Z,4.73
2018-07-09T22:49:19.979Z,4.70
2018-07-09T22:51:48.456Z,4.27
2018-07-09T22:54:18.054Z,4.53
2018-07-09T22:56:46.495Z,3.97
2018-07-09T22:59:14.976Z,4.83
2018-07-09T23:01:43.521Z,4.23
2018-07-09T23:04:11.978Z,3.73
2018-07-09T23:06:40.391Z,5.47
2018-07-09T23:10:19.801Z,4.70
2018-07-09T23:13:26.131Z,4.10
2018-07-09T23:16:35.460Z,4.67
2018-07-09T23:19:18.787Z,3.60
2018-07-09T23:22:23.986Z,4.13
2018-07-09T23:24:51.347Z,3.60
2018-07-09T23:27:18.686Z,3.10
2018-07-09T23:29:46.001Z,4.03
2018-07-09T23:32:13.326Z,4.53
2018-07-09T23:34:40.631Z,4.90
2018-07-09T23:37:07.924Z,4.17
2018-07-09T23:39:35.268Z,3.50
2018-07-09T23:42:02.622Z,3.67
2018-07-09T23:44:30.112Z,4.27
2018-07-09T23:46:57.436Z,4.40
2018-07-09T23:49:24.776Z,5.17
2018-07-09T23:51:52.264Z,5.27
2018-07-09T23:54:19.626Z,5.90
2018-07-09T23:57:09.862Z,6.40
2018-07-09T23:59:50.693Z,6.97
